Aérodrome :
LOGIN :

S'inscrire | Disclaimer

   EN    FR    IT 

 










Légende :    VFR   VFR Marginal   IFR   IFR Intensif   IFR Très Intensif
Visi : 
Plafond : 
>= 8 km
>= 3000ft
5 à 8 km
1000 à 3000 ft
1500m à 5 km
500 à 1000 ft
800 à 1500m
200 à 500 ft
< 800m
< 200 ft
Symboles :   Orages  Brouillard  Fortes neiges  Fortes précipitations  Vent > 20 kt
SIGMETs :   Divers  Orages  Givrage  Turbulence  Onde Orograph.  Cendres Volcan.






- Altitude de l'aérodrome : 265 ft
- Code IATA : BJY


LYBT - Batajnica Air Base

DERNIER METAR :
  • 240900Z 24007KT 200V280 9999 SCT017 13/10 Q1005 NOSIG

METARs EXPIRÉS :
  • 240830Z 25008KT 220V280 9999 SCT017 12/09 Q1005 NOSIG
  • 240800Z 25008KT 220V280 9999 SCT020 10/08 Q1005 NOSIG
  • 240730Z 27011KT 9999 SCT017 10/08 Q1005 NOSIG
  • 240700Z 27012KT 9999 BKN013 11/09 Q1005 NOSIG
  • 240630Z 26010KT 9999 SCT013 SCT017 11/09 Q1005 NOSIG
  • 240600Z 24005KT 9999 BKN010 11/10 Q1005 NOSIG
  • 240530Z 25008KT 9999 BKN010 11/10 Q1005 NOSIG
  • 240500Z 24007KT 6000 BKN010 10/10 Q1005 NOSIG
  • 240430Z 22006KT 5000 BR BKN007 10/10 Q1005 BECMG 8000 NSW BKN012

TAF TAF LYBT
Valide du 24 à 06h jusqu'au 25 à 06h UTC


240500Z 2406/2506 26008KT 9999 BKN025 TX17/2413Z TN04/2504Z
TEMPO 2406/2408 BKN013
TEMPO 2412/2417 24015G25KT 4000 TSRA SCT033CB SCT040
TEMPO 2502/2505 4000 BR



MET'MAP, la Météo Aéronautique d'un coup d'oeil ! - Copyright ORBIFLY Décembre 2007 - Disclaimer

ORBIFLY MET'MAP TEAM :

Programmation & Développement : Alexandra Zaïnal
Sur une idée originale de : Baudouin d'Aumeries
Soutien technique & logistique : Manuel Goepfert
Assistance : Marc-Olivier Méhu




SOURCES & CREDITS :

   NOAA